Time;durP1;ratioP1;P1;durP2;ratioP2;P2;SDS_P1;SDS_P2;PMS_P1;PMS_P2;Temp;Humidity;BMP_temperature;BMP_pressure;BME280_temperature;BME280_humidity;BME280_pressure;Samples;Min_cycle;Max_cycle;Signal;HPM_P1;HPM_P2
2022/07/11 00:02:04;;;;;;;2.22;1.05;;;15.90;92.40;;;;;;4989960;28;20030;-75
2022/07/11 00:04:30;;;;;;;0.90;0.90;;;15.90;92.50;;;;;;4989320;28;20474;-75
2022/07/11 00:06:57;;;;;;;0.38;0.38;;;15.80;93.00;;;;;;4988883;28;20038;-75
2022/07/11 00:09:22;;;;;;;2.17;1.23;;;15.70;93.00;;;;;;4989625;28;20037;-74
2022/07/11 00:11:48;;;;;;;0.35;0.35;;;15.60;93.40;;;;;;4989882;28;20038;-75
2022/07/11 00:14:15;;;;;;;1.17;1.08;;;15.40;93.90;;;;;;4989752;28;20095;-75
2022/07/11 00:16:41;;;;;;;2.13;1.00;;;15.40;94.60;;;;;;4989052;28;20481;-75
2022/07/11 00:19:06;;;;;;;1.75;0.30;;;15.30;94.80;;;;;;4989047;28;20033;-74
2022/07/11 00:21:33;;;;;;;0.70;0.47;;;15.30;95.30;;;;;;4989272;28;20023;-75
2022/07/11 00:23:59;;;;;;;0.82;0.30;;;15.20;95.40;;;;;;4989353;28;20030;-75
2022/07/11 00:26:25;;;;;;;3.83;0.38;;;15.20;95.80;;;;;;4989274;28;20492;-74
2022/07/11 00:28:50;;;;;;;3.47;0.40;;;15.10;96.10;;;;;;4989420;28;20030;-75
2022/07/11 00:31:16;;;;;;;0.35;0.35;;;15.10;96.40;;;;;;4989096;28;20022;-75
2022/07/11 00:33:41;;;;;;;0.40;0.40;;;15.00;96.70;;;;;;4989252;28;20034;-75
2022/07/11 00:36:07;;;;;;;0.82;0.45;;;14.90;96.90;;;;;;4989012;28;20089;-75
2022/07/11 00:38:33;;;;;;;0.50;0.32;;;14.90;97.50;;;;;;4988760;28;20084;-76
2022/07/11 00:40:58;;;;;;;1.17;0.43;;;14.80;98.00;;;;;;4988984;28;20046;-76
2022/07/11 00:43:51;;;;;;;0.93;0.93;;;14.80;98.20;;;;;;4989542;28;20023;-75
2022/07/11 00:46:16;;;;;;;2.28;1.23;;;14.80;98.30;;;;;;4985289;28;20069;-74
2022/07/11 00:48:42;;;;;;;0.40;0.40;;;14.60;98.70;;;;;;4988711;28;20038;-74
2022/07/11 00:51:07;;;;;;;2.05;0.47;;;14.70;98.80;;;;;;4988814;28;20033;-75
2022/07/11 00:53:34;;;;;;;0.17;0.17;;;14.60;99.20;;;;;;4988164;28;20493;-74
2022/07/11 00:56:00;;;;;;;0.45;0.38;;;14.50;99.70;;;;;;4988457;28;20515;-74
2022/07/11 00:58:27;;;;;;;0.40;0.40;;;14.50;99.70;;;;;;4987767;28;20042;-76
2022/07/11 01:00:53;;;;;;;3.42;0.93;;;14.50;99.70;;;;;;4988248;28;20025;-75
2022/07/11 01:03:18;;;;;;;1.92;0.90;;;14.50;99.90;;;;;;4988617;28;20034;-75
2022/07/11 01:05:44;;;;;;;0.43;0.20;;;14.50;99.90;;;;;;4988525;28;20105;-76
2022/07/11 01:08:10;;;;;;;2.05;0.52;;;14.40;99.90;;;;;;4988036;28;20540;-74
2022/07/11 01:10:35;;;;;;;0.35;0.35;;;14.40;99.90;;;;;;4988410;28;20125;-75
2022/07/11 01:13:01;;;;;;;0.32;0.32;;;14.40;99.90;;;;;;4988975;28;20121;-75
2022/07/11 01:15:26;;;;;;;3.40;0.75;;;14.40;99.90;;;;;;4988195;28;20037;-74
2022/07/11 01:17:55;;;;;;;0.60;0.50;;;14.40;99.90;;;;;;4988368;28;20032;-74
2022/07/11 01:20:22;;;;;;;0.38;0.38;;;14.40;99.90;;;;;;4988525;28;20065;-74
2022/07/11 01:22:51;;;;;;;0.52;0.40;;;14.30;99.90;;;;;;4988902;28;20114;-76
2022/07/11 01:25:30;;;;;;;0.57;0.52;;;14.30;99.90;;;;;;4988311;28;20030;-74
2022/07/11 01:27:59;;;;;;;0.68;0.30;;;14.30;99.90;;;;;;4988684;28;20175;-75
2022/07/11 01:30:29;;;;;;;0.85;0.30;;;14.20;99.90;;;;;;4986833;28;20046;-75
2022/07/11 01:32:55;;;;;;;0.25;0.25;;;14.00;99.90;;;;;;4988717;28;20078;-75
2022/07/11 01:35:21;;;;;;;2.15;0.30;;;14.00;99.90;;;;;;4988083;28;20536;-74
2022/07/11 01:37:47;;;;;;;1.98;0.85;;;13.90;99.90;;;;;;4987960;28;20026;-75
2022/07/11 01:40:13;;;;;;;5.53;1.40;;;13.90;99.90;;;;;;4988031;28;20028;-75
2022/07/11 01:42:38;;;;;;;0.95;0.52;;;13.90;99.90;;;;;;4988063;28;20109;-75
2022/07/11 01:45:04;;;;;;;1.17;0.32;;;13.80;99.90;;;;;;4988151;28;20138;-75
2022/07/11 01:47:30;;;;;;;0.47;0.40;;;13.80;99.90;;;;;;4987831;28;20057;-75
2022/07/11 01:49:55;;;;;;;0.40;0.40;;;13.70;99.90;;;;;;4987276;28;20058;-75
2022/07/11 01:52:21;;;;;;;6.95;0.85;;;13.70;99.90;;;;;;4988040;28;20069;-75
2022/07/11 01:54:47;;;;;;;0.50;0.50;;;13.80;99.90;;;;;;4988192;28;20030;-75
2022/07/11 01:57:13;;;;;;;0.30;0.30;;;13.70;99.90;;;;;;4988188;28;20390;-75
2022/07/11 01:59:38;;;;;;;0.38;0.35;;;13.70;99.90;;;;;;4987157;28;20427;-75
2022/07/11 02:02:04;;;;;;;0.57;0.50;;;13.60;99.90;;;;;;4987818;28;20026;-75
2022/07/11 02:04:29;;;;;;;0.93;0.50;;;13.60;99.90;;;;;;4988259;28;20366;-75
2022/07/11 02:06:55;;;;;;;1.60;0.88;;;13.50;99.90;;;;;;4987604;28;20712;-75
2022/07/11 02:09:20;;;;;;;1.13;0.75;;;13.50;99.90;;;;;;4987931;28;20108;-75
2022/07/11 02:11:46;;;;;;;1.83;0.57;;;13.50;99.90;;;;;;4987688;28;20029;-76
2022/07/11 02:14:13;;;;;;;0.55;0.43;;;13.50;99.90;;;;;;4987942;28;20030;-75
2022/07/11 02:16:38;;;;;;;0.55;0.55;;;13.40;99.90;;;;;;4987811;28;20026;-75
2022/07/11 02:19:04;;;;;;;0.40;0.40;;;13.40;99.90;;;;;;4987517;28;20033;-75
2022/07/11 02:21:29;;;;;;;2.75;1.27;;;13.40;99.90;;;;;;4986731;28;20030;-75
2022/07/11 02:23:58;;;;;;;2.67;0.50;;;13.30;99.90;;;;;;4982815;28;20026;-75
2022/07/11 02:26:23;;;;;;;2.88;0.57;;;13.30;99.90;;;;;;4987460;28;20208;-75
2022/07/11 02:28:49;;;;;;;0.70;0.50;;;13.30;99.90;;;;;;4987529;28;20109;-75
2022/07/11 02:31:15;;;;;;;0.35;0.35;;;13.30;99.90;;;;;;4987725;28;20030;-75
2022/07/11 02:33:40;;;;;;;2.78;1.17;;;13.30;99.90;;;;;;4987460;28;20105;-75
2022/07/11 02:36:07;;;;;;;4.88;0.90;;;13.30;99.90;;;;;;4987302;28;20051;-75
2022/07/11 02:38:33;;;;;;;0.40;0.40;;;13.20;99.90;;;;;;4987804;28;20030;-75
2022/07/11 02:40:58;;;;;;;0.50;0.50;;;13.30;99.90;;;;;;4987399;28;20500;-75
2022/07/11 02:43:24;;;;;;;0.20;0.20;;;13.20;99.90;;;;;;4990859;28;20026;-75
2022/07/11 02:45:50;;;;;;;0.60;0.60;;;13.20;99.90;;;;;;4990159;28;20458;-76
2022/07/11 02:48:15;;;;;;;0.75;0.50;;;13.20;99.90;;;;;;4991352;28;20041;-75
2022/07/11 02:50:41;;;;;;;1.63;1.02;;;13.20;99.90;;;;;;4991025;28;20030;-75
2022/07/11 02:53:06;;;;;;;2.63;0.63;;;13.00;99.90;;;;;;4991434;28;20039;-75
2022/07/11 02:55:32;;;;;;;0.35;0.35;;;13.00;99.90;;;;;;4990499;28;20026;-75
2022/07/11 02:57:57;;;;;;;1.55;1.00;;;13.00;99.90;;;;;;4991253;28;20029;-75
2022/07/11 03:00:23;;;;;;;0.63;0.50;;;12.90;99.90;;;;;;4990221;28;20050;-75
2022/07/11 03:02:48;;;;;;;1.48;0.80;;;12.90;99.90;;;;;;4990468;28;20446;-75
2022/07/11 03:05:14;;;;;;;0.35;0.35;;;12.90;99.90;;;;;;4990829;28;20046;-74
2022/07/11 03:07:40;;;;;;;0.90;0.43;;;12.80;99.90;;;;;;4990757;28;20057;-74
2022/07/11 03:10:05;;;;;;;1.25;0.50;;;12.80;99.90;;;;;;4990944;28;20048;-76
2022/07/11 03:12:31;;;;;;;0.30;0.30;;;12.80;99.90;;;;;;4990804;28;20027;-74
2022/07/11 03:14:57;;;;;;;2.50;0.40;;;12.70;99.90;;;;;;4989330;28;20026;-75
2022/07/11 03:17:22;;;;;;;1.02;0.35;;;12.80;99.90;;;;;;4990143;28;20030;-75
2022/07/11 03:19:48;;;;;;;0.57;0.38;;;12.80;99.90;;;;;;4990292;28;20105;-75
2022/07/11 03:22:15;;;;;;;0.65;0.47;;;12.80;99.90;;;;;;4991019;28;20054;-75
2022/07/11 03:24:41;;;;;;;0.45;0.45;;;12.80;99.90;;;;;;4990191;28;21062;-75
2022/07/11 03:27:07;;;;;;;0.45;0.30;;;12.70;99.90;;;;;;4990555;28;20519;-76
2022/07/11 03:29:50;;;;;;;0.60;0.60;;;12.60;99.90;;;;;;4990129;28;20548;-75
2022/07/11 03:32:16;;;;;;;3.15;0.47;;;12.60;99.90;;;;;;4985514;28;20034;-75
2022/07/11 03:37:54;;;;;;;0.35;0.30;;;12.60;99.90;;;;;;4967117;28;20430;-75
2022/07/11 03:40:26;;;;;;;0.43;0.43;;;12.50;99.90;;;;;;4970888;28;20030;-75
2022/07/11 03:43:40;;;;;;;0.60;0.47;;;12.50;99.90;;;;;;4967083;28;20027;-75
2022/07/11 03:46:29;;;;;;;0.40;0.35;;;12.50;99.90;;;;;;4969259;28;20031;-75
2022/07/11 03:49:06;;;;;;;0.93;0.45;;;12.50;99.90;;;;;;4932889;28;20034;-75
2022/07/11 03:51:31;;;;;;;2.25;1.13;;;12.50;99.90;;;;;;4970524;28;20023;-76
2022/07/11 03:53:56;;;;;;;0.82;0.82;;;12.50;99.90;;;;;;4970811;28;20027;-75
2022/07/11 03:56:22;;;;;;;0.85;0.70;;;12.50;99.90;;;;;;4968326;28;20035;-75
2022/07/11 03:58:51;;;;;;;0.85;0.65;;;12.50;99.90;;;;;;4970387;28;20390;-75
2022/07/11 04:01:17;;;;;;;0.57;0.50;;;12.50;99.90;;;;;;4970138;28;20486;-75
2022/07/11 04:03:42;;;;;;;0.70;0.70;;;12.50;99.90;;;;;;4970359;28;20058;-74
2022/07/11 04:06:08;;;;;;;0.50;0.50;;;12.50;99.90;;;;;;4967812;28;20034;-75
2022/07/11 04:08:33;;;;;;;3.92;1.35;;;12.50;99.90;;;;;;4969118;28;20447;-75
2022/07/11 04:10:59;;;;;;;0.38;0.38;;;12.50;99.90;;;;;;4970223;28;20086;-75
2022/07/11 04:13:25;;;;;;;0.30;0.30;;;12.50;99.90;;;;;;4969860;28;20039;-76
2022/07/11 04:15:50;;;;;;;0.30;0.30;;;12.60;99.90;;;;;;4972683;28;20166;-74
2022/07/11 04:18:17;;;;;;;4.28;1.00;;;12.60;99.90;;;;;;4969976;28;20473;-75
2022/07/11 04:20:45;;;;;;;0.47;0.47;;;12.50;99.90;;;;;;4969956;28;20023;-75
2022/07/11 04:23:11;;;;;;;0.63;0.47;;;12.50;99.90;;;;;;4970229;28;20106;-75
2022/07/11 04:25:36;;;;;;;1.63;0.57;;;12.50;99.90;;;;;;4970446;28;20165;-75
2022/07/11 04:28:02;;;;;;;1.98;0.50;;;12.60;99.90;;;;;;4964977;28;20045;-75
2022/07/11 04:30:27;;;;;;;6.93;0.80;;;12.60;99.90;;;;;;4969468;28;20036;-75
2022/07/11 04:32:53;;;;;;;1.00;0.82;;;12.70;99.90;;;;;;4969694;28;20053;-74
2022/07/11 04:35:19;;;;;;;0.30;0.30;;;12.70;99.90;;;;;;4970792;28;20122;-75
2022/07/11 04:37:44;;;;;;;0.60;0.60;;;12.80;99.90;;;;;;4988399;28;20030;-75
2022/07/11 04:40:10;;;;;;;2.75;0.68;;;12.80;99.90;;;;;;4989095;28;20393;-76
2022/07/11 04:42:36;;;;;;;0.30;0.30;;;12.90;99.90;;;;;;4989459;28;20058;-74
2022/07/11 04:45:01;;;;;;;0.30;0.30;;;12.80;99.90;;;;;;4988528;28;20104;-75
2022/07/11 04:47:26;;;;;;;3.88;0.68;;;12.80;99.90;;;;;;4988531;28;20030;-74
2022/07/11 04:49:52;;;;;;;2.22;1.02;;;12.80;99.90;;;;;;4988514;28;20109;-75
2022/07/11 04:52:17;;;;;;;0.70;0.70;;;12.90;99.90;;;;;;4989080;28;20026;-75
2022/07/11 04:54:43;;;;;;;2.70;0.40;;;13.00;99.90;;;;;;4988506;28;20065;-75
2022/07/11 04:57:09;;;;;;;1.13;0.45;;;13.00;99.90;;;;;;4989295;28;20109;-75
2022/07/11 04:59:34;;;;;;;0.40;0.40;;;13.10;99.90;;;;;;4988626;28;20031;-75
2022/07/11 05:02:00;;;;;;;0.40;0.40;;;13.20;99.90;;;;;;4988466;28;20026;-75
2022/07/11 05:04:25;;;;;;;4.45;0.55;;;13.20;99.90;;;;;;4988652;28;20597;-76
2022/07/11 05:06:51;;;;;;;1.98;0.70;;;13.30;99.90;;;;;;4980607;28;20081;-74
2022/07/11 05:09:16;;;;;;;4.40;0.68;;;13.30;99.90;;;;;;4988930;28;20189;-75
2022/07/11 05:11:41;;;;;;;0.77;0.57;;;13.30;99.90;;;;;;4982876;28;20458;-74
2022/07/11 05:14:07;;;;;;;1.20;0.40;;;13.20;99.90;;;;;;4987959;28;20109;-75
2022/07/11 05:16:33;;;;;;;0.88;0.88;;;13.30;99.90;;;;;;4987807;28;20412;-75
2022/07/11 05:18:58;;;;;;;0.50;0.50;;;13.30;99.90;;;;;;4988172;28;20034;-74
2022/07/11 05:21:24;;;;;;;1.15;0.40;;;13.40;99.90;;;;;;4988484;28;20061;-76
2022/07/11 05:23:50;;;;;;;2.35;0.50;;;13.40;99.90;;;;;;4986950;28;20041;-74
2022/07/11 05:26:16;;;;;;;2.38;0.50;;;13.40;99.90;;;;;;4988687;28;20033;-75
2022/07/11 05:28:42;;;;;;;0.50;0.50;;;13.50;99.90;;;;;;4988321;28;20030;-74
2022/07/11 05:31:07;;;;;;;2.47;0.90;;;13.50;99.90;;;;;;4988063;28;20041;-74
2022/07/11 05:33:34;;;;;;;1.10;0.73;;;13.50;99.90;;;;;;4988914;28;20030;-76
2022/07/11 05:36:01;;;;;;;2.20;1.25;;;13.50;99.90;;;;;;4981061;28;20042;-75
2022/07/11 05:38:26;;;;;;;0.32;0.32;;;13.50;99.90;;;;;;4988810;28;20038;-74
2022/07/11 05:40:52;;;;;;;0.32;0.30;;;13.60;99.90;;;;;;4987030;28;20026;-74
2022/07/11 05:43:18;;;;;;;0.52;0.43;;;13.60;99.90;;;;;;4986463;28;20431;-74
2022/07/11 05:45:43;;;;;;;0.98;0.45;;;13.70;99.90;;;;;;4987002;28;20062;-75
2022/07/11 05:48:09;;;;;;;0.60;0.52;;;13.80;99.90;;;;;;4987588;28;20038;-74
2022/07/11 05:50:35;;;;;;;2.58;0.55;;;13.80;99.90;;;;;;4986518;28;20030;-74
2022/07/11 05:53:02;;;;;;;0.60;0.45;;;13.80;99.90;;;;;;4986357;28;20039;-75
2022/07/11 05:55:28;;;;;;;0.40;0.40;;;13.90;99.90;;;;;;4987823;28;20497;-75
2022/07/11 05:57:53;;;;;;;1.30;0.60;;;14.00;99.90;;;;;;4986222;28;20030;-76
2022/07/11 06:00:19;;;;;;;2.03;0.90;;;14.00;99.90;;;;;;4984493;28;20038;-75
2022/07/11 06:02:47;;;;;;;1.05;0.70;;;14.00;99.90;;;;;;4987453;28;20065;-76
2022/07/11 06:05:13;;;;;;;0.40;0.40;;;14.00;99.90;;;;;;4988336;28;20149;-75
2022/07/11 06:10:22;;;;;;;0.50;0.50;;;14.20;99.90;;;;;;4986438;28;20041;-76
2022/07/11 06:12:48;;;;;;;0.45;0.25;;;14.30;99.90;;;;;;4979891;28;20389;-76
2022/07/11 06:15:13;;;;;;;2.58;1.38;;;14.30;99.90;;;;;;4983231;28;20026;-75
2022/07/11 06:17:39;;;;;;;1.50;0.57;;;14.40;99.90;;;;;;4989582;28;20496;-76
2022/07/11 06:20:05;;;;;;;1.88;0.50;;;14.40;99.90;;;;;;4991467;28;20042;-75
2022/07/11 06:22:30;;;;;;;0.40;0.40;;;14.40;99.90;;;;;;4990478;28;20449;-75
2022/07/11 06:24:56;;;;;;;0.40;0.40;;;14.50;99.90;;;;;;4989107;28;20092;-75
2022/07/11 06:27:21;;;;;;;0.82;0.60;;;14.60;99.90;;;;;;4991965;28;20050;-75
2022/07/11 06:29:46;;;;;;;0.40;0.40;;;14.60;99.90;;;;;;4991519;28;20117;-75
2022/07/11 06:32:12;;;;;;;0.60;0.60;;;14.70;99.90;;;;;;4992341;28;20077;-74
2022/07/11 06:34:38;;;;;;;0.43;0.43;;;14.70;99.90;;;;;;4992121;28;20030;-75
2022/07/11 06:37:04;;;;;;;4.05;0.40;;;14.70;99.90;;;;;;4990452;28;20058;-75
2022/07/11 06:39:29;;;;;;;0.50;0.50;;;14.80;99.90;;;;;;4991899;28;20014;-76
2022/07/11 06:41:54;;;;;;;0.57;0.38;;;14.90;99.90;;;;;;4990534;28;20679;-76
2022/07/11 06:44:20;;;;;;;1.02;0.60;;;14.90;99.90;;;;;;4991755;28;20061;-80
2022/07/11 06:46:45;;;;;;;1.05;0.57;;;15.00;99.90;;;;;;4990751;28;20046;-76
2022/07/11 06:49:12;;;;;;;1.17;0.65;;;15.10;99.90;;;;;;4991007;28;20034;-76
2022/07/11 06:51:38;;;;;;;4.95;0.45;;;15.20;99.90;;;;;;4990813;28;20054;-77
2022/07/11 06:54:04;;;;;;;0.50;0.40;;;15.20;99.90;;;;;;4989198;28;20045;-91
2022/07/11 06:56:30;;;;;;;0.88;0.65;;;15.20;99.90;;;;;;4992173;28;20052;-76
2022/07/11 06:58:55;;;;;;;0.80;0.68;;;15.20;99.90;;;;;;4991487;28;20011;-78
2022/07/11 07:01:21;;;;;;;1.70;0.63;;;15.20;99.90;;;;;;4990026;28;20021;-77
2022/07/11 07:03:46;;;;;;;0.57;0.50;;;15.30;99.90;;;;;;4990510;28;20030;-76
2022/07/11 07:06:12;;;;;;;2.35;1.23;;;15.50;99.90;;;;;;4988429;28;20037;-77
2022/07/11 07:08:38;;;;;;;1.38;0.52;;;15.50;99.90;;;;;;4991102;28;20473;-75
2022/07/11 07:11:03;;;;;;;1.27;0.82;;;15.60;99.90;;;;;;4989845;28;20225;-76
2022/07/11 07:13:29;;;;;;;0.68;0.60;;;15.70;99.90;;;;;;4993158;28;20481;-77
2022/07/11 07:15:56;;;;;;;1.58;0.88;;;15.80;99.90;;;;;;4989863;28;20117;-77
2022/07/11 07:18:22;;;;;;;0.40;0.40;;;15.90;99.90;;;;;;4991564;28;20112;-77
2022/07/11 07:20:48;;;;;;;2.35;0.60;;;16.00;99.90;;;;;;4990019;28;20430;-78
2022/07/11 07:23:13;;;;;;;0.88;0.60;;;16.00;99.90;;;;;;4987249;28;20477;-75
2022/07/11 07:25:39;;;;;;;0.40;0.40;;;16.00;99.90;;;;;;4990488;28;20018;-75
2022/07/11 07:28:05;;;;;;;0.35;0.35;;;16.10;99.90;;;;;;4988972;28;20058;-74
2022/07/11 07:30:32;;;;;;;0.40;0.40;;;16.10;99.90;;;;;;4990109;28;20056;-75
2022/07/11 07:32:57;;;;;;;1.20;0.80;;;16.20;99.90;;;;;;4989936;28;20101;-75
2022/07/11 07:35:22;;;;;;;0.50;0.50;;;16.30;99.90;;;;;;4990195;28;20662;-79
2022/07/11 07:37:48;;;;;;;0.40;0.40;;;16.40;99.90;;;;;;4990803;28;20046;-77
2022/07/11 07:40:13;;;;;;;2.60;1.48;;;16.40;99.90;;;;;;4989798;28;20109;-75
2022/07/11 07:42:39;;;;;;;0.43;0.43;;;16.60;99.90;;;;;;4989536;28;20034;-76
2022/07/11 07:45:05;;;;;;;0.68;0.50;;;16.50;99.90;;;;;;4990564;28;20057;-77
2022/07/11 07:47:30;;;;;;;1.52;0.70;;;16.50;99.90;;;;;;4988878;28;20101;-77
2022/07/11 07:49:56;;;;;;;0.60;0.50;;;16.40;99.90;;;;;;4989627;28;20729;-77
2022/07/11 07:52:21;;;;;;;0.68;0.40;;;16.40;99.90;;;;;;4990729;28;20037;-77
2022/07/11 07:54:47;;;;;;;0.88;0.57;;;16.50;99.90;;;;;;4991068;28;20034;-76
2022/07/11 07:57:12;;;;;;;0.70;0.40;;;16.60;99.90;;;;;;4989514;28;20018;-76
2022/07/11 07:59:38;;;;;;;1.15;1.02;;;16.60;99.90;;;;;;4989897;28;20034;-80
2022/07/11 08:02:03;;;;;;;3.40;0.70;;;16.60;99.90;;;;;;4988423;28;20181;-75
2022/07/11 08:04:29;;;;;;;0.40;0.40;;;16.60;99.90;;;;;;4991392;28;20068;-74
2022/07/11 08:06:54;;;;;;;5.28;0.93;;;16.70;99.90;;;;;;4989028;28;20807;-80
2022/07/11 08:09:20;;;;;;;1.45;1.10;;;16.80;99.90;;;;;;4990328;28;20026;-79
2022/07/11 08:11:45;;;;;;;0.93;0.70;;;17.00;99.90;;;;;;4989464;28;20018;-77
2022/07/11 08:14:11;;;;;;;0.28;0.28;;;17.20;99.90;;;;;;4987572;28;20022;-77
2022/07/11 08:16:36;;;;;;;0.93;0.50;;;17.40;99.90;;;;;;4987287;28;20142;-75
2022/07/11 08:19:04;;;;;;;0.55;0.45;;;17.40;99.90;;;;;;4988257;28;20125;-75
2022/07/11 08:21:29;;;;;;;3.25;0.75;;;17.50;99.90;;;;;;4989992;28;20051;-73
2022/07/11 08:23:56;;;;;;;0.35;0.22;;;17.70;99.90;;;;;;4990356;28;20018;-76
2022/07/11 08:26:21;;;;;;;4.65;0.57;;;17.80;99.90;;;;;;4989350;28;20033;-77
2022/07/11 08:28:47;;;;;;;0.47;0.45;;;17.80;99.90;;;;;;4990243;28;20034;-80
2022/07/11 08:31:13;;;;;;;0.52;0.30;;;17.90;99.70;;;;;;4987183;28;20082;-75
2022/07/11 08:33:38;;;;;;;0.60;0.57;;;17.90;99.90;;;;;;4990284;28;20022;-74
2022/07/11 08:36:04;;;;;;;2.75;0.70;;;17.90;99.90;;;;;;4988549;28;20050;-75
2022/07/11 08:38:30;;;;;;;1.20;0.50;;;17.90;99.90;;;;;;4990125;28;20033;-75
2022/07/11 08:40:55;;;;;;;4.85;0.80;;;18.00;99.00;;;;;;4987417;28;20023;-74
2022/07/11 08:43:26;;;;;;;2.65;0.52;;;18.20;97.20;;;;;;4988855;28;20037;-75
2022/07/11 08:45:52;;;;;;;1.77;0.65;;;18.40;97.20;;;;;;4988926;28;20485;-73
2022/07/11 08:48:19;;;;;;;0.77;0.38;;;18.50;97.00;;;;;;4988934;28;20145;-73
2022/07/11 08:50:45;;;;;;;6.10;0.63;;;18.40;96.00;;;;;;4988299;28;20030;-74
2022/07/11 08:53:12;;;;;;;1.00;0.60;;;18.50;95.20;;;;;;4988177;28;20030;-83
2022/07/11 08:55:39;;;;;;;0.50;0.50;;;18.70;95.00;;;;;;4989610;28;20038;-81
2022/07/11 08:58:07;;;;;;;0.65;0.60;;;18.80;94.40;;;;;;4988347;28;20026;-85
2022/07/11 09:00:33;;;;;;;0.45;0.43;;;18.90;93.10;;;;;;4989413;28;20410;-82
2022/07/11 09:03:00;;;;;;;0.30;0.30;;;19.10;94.40;;;;;;4977499;28;20113;-80
2022/07/11 09:05:27;;;;;;;0.73;0.40;;;19.50;92.70;;;;;;4982080;28;20093;-79
2022/07/11 09:07:52;;;;;;;1.67;0.22;;;19.80;89.40;;;;;;4983473;28;20099;-78
2022/07/11 09:10:18;;;;;;;6.05;1.30;;;20.20;89.30;;;;;;4986604;28;20069;-86
2022/07/11 09:13:02;;;;;;;2.45;1.15;;;20.40;89.50;;;;;;4987479;28;20034;-81
2022/07/11 09:15:36;;;;;;;0.30;0.30;;;19.90;90.10;;;;;;4990442;28;20113;-86
2022/07/11 09:18:03;;;;;;;2.63;0.75;;;19.60;90.60;;;;;;4985661;28;20033;-81
2022/07/11 09:25:19;;;;;;;1.83;0.32;;;19.50;91.40;;;;;;4987495;28;20469;-81
2022/07/11 09:26:18;;;;;;;0.40;0.32;;;19.70;88.40;;;;;;4989176;28;20082;-82
2022/07/11 09:29:16;;;;;;;0.30;0.30;;;20.00;84.10;;;;;;4989149;28;20034;-83
2022/07/11 09:31:44;;;;;;;0.43;0.43;;;20.10;81.90;;;;;;4987192;28;20047;-88
2022/07/11 09:34:15;;;;;;;0.60;0.52;;;20.10;84.10;;;;;;4987899;28;20041;-81
2022/07/11 09:36:50;;;;;;;0.32;0.20;;;19.90;85.30;;;;;;4989068;28;20335;-86
2022/07/11 09:39:21;;;;;;;0.30;0.30;;;19.70;85.00;;;;;;4987695;28;20056;-79
2022/07/11 09:41:49;;;;;;;3.97;0.30;;;19.70;84.70;;;;;;4989443;28;20030;-81
2022/07/11 09:44:17;;;;;;;1.25;0.70;;;20.00;84.90;;;;;;4986654;28;20794;-83
2022/07/11 09:46:48;;;;;;;2.13;1.10;;;20.10;86.00;;;;;;4989227;28;20481;-87
2022/07/11 09:49:16;;;;;;;0.68;0.68;;;20.30;87.00;;;;;;4988013;28;20043;-85
2022/07/11 09:51:42;;;;;;;0.30;0.30;;;20.10;80.30;;;;;;4991928;28;20109;-82
2022/07/11 09:54:09;;;;;;;0.43;0.43;;;20.00;78.30;;;;;;4990253;28;20030;-75
2022/07/11 09:56:41;;;;;;;0.60;0.50;;;19.80;77.80;;;;;;4990088;28;20488;-77
2022/07/11 09:59:12;;;;;;;0.47;0.32;;;20.20;81.20;;;;;;4991297;28;20260;-78
2022/07/11 10:01:39;;;;;;;0.20;0.20;;;20.50;78.60;;;;;;4988518;28;20101;-76
2022/07/11 10:04:06;;;;;;;1.63;0.22;;;20.80;75.60;;;;;;4990710;28;20702;-78
2022/07/11 10:06:32;;;;;;;2.75;0.47;;;20.70;77.10;;;;;;4991485;28;20042;-76
2022/07/11 10:08:57;;;;;;;0.20;0.20;;;20.80;76.40;;;;;;4992695;28;20414;-75
2022/07/11 10:11:23;;;;;;;0.30;0.30;;;20.90;71.10;;;;;;4992399;28;20030;-75
2022/07/11 10:13:49;;;;;;;0.40;0.30;;;21.10;73.00;;;;;;4992702;28;20030;-76
2022/07/11 10:16:27;;;;;;;1.02;0.40;;;21.20;75.50;;;;;;4990704;28;20249;-75
2022/07/11 10:19:21;;;;;;;0.82;0.45;;;20.90;73.60;;;;;;4990843;28;20022;-75
2022/07/11 10:22:09;;;;;;;0.50;0.50;;;20.90;74.70;;;;;;4986015;28;20046;-75
2022/07/11 10:24:46;;;;;;;3.75;0.40;;;21.00;75.90;;;;;;4988447;28;20028;-76
2022/07/11 10:27:23;;;;;;;1.08;0.47;;;20.80;72.80;;;;;;4984627;28;20023;-78
2022/07/11 10:29:52;;;;;;;0.55;0.50;;;20.60;75.70;;;;;;4990373;28;20029;-75
2022/07/11 10:32:19;;;;;;;2.22;0.43;;;20.70;77.60;;;;;;4991873;28;20746;-75
2022/07/11 10:34:46;;;;;;;0.50;0.50;;;21.10;77.60;;;;;;4991730;28;20042;-74
2022/07/11 10:37:12;;;;;;;0.40;0.40;;;21.30;75.30;;;;;;4991505;28;20382;-75
2022/07/11 10:39:38;;;;;;;0.30;0.30;;;21.60;74.20;;;;;;4992111;28;20030;-75
2022/07/11 10:42:05;;;;;;;0.90;0.52;;;21.70;74.40;;;;;;4991465;28;20037;-76
2022/07/11 10:44:57;;;;;;;0.43;0.43;;;21.80;76.80;;;;;;4991730;28;20496;-75
2022/07/11 10:47:36;;;;;;;0.40;0.40;;;22.30;73.90;;;;;;4986885;28;20042;-77
2022/07/11 10:50:32;;;;;;;0.65;0.60;;;22.60;68.60;;;;;;4991353;28;20481;-75
2022/07/11 10:52:57;;;;;;;0.45;0.43;;;23.10;68.50;;;;;;4991314;28;20434;-77
2022/07/11 10:55:46;;;;;;;1.58;0.40;;;23.30;65.70;;;;;;4991452;28;20064;-74
2022/07/11 10:58:24;;;;;;;1.55;0.47;;;23.30;64.40;;;;;;4991495;28;20473;-76
2022/07/11 11:01:07;;;;;;;0.60;0.60;;;22.60;63.00;;;;;;4989511;28;20057;-76
2022/07/11 11:03:32;;;;;;;0.50;0.50;;;22.50;64.40;;;;;;4989411;28;20117;-76
2022/07/11 11:05:58;;;;;;;2.50;0.50;;;22.90;69.90;;;;;;4991628;28;20105;-78
2022/07/11 11:08:36;;;;;;;1.30;0.50;;;23.30;64.70;;;;;;4989646;28;20030;-74
2022/07/11 11:11:02;;;;;;;1.40;0.57;;;23.40;61.00;;;;;;4990877;28;20038;-75
2022/07/11 11:13:29;;;;;;;0.40;0.40;;;23.20;63.30;;;;;;4987034;28;20038;-77
2022/07/11 11:15:59;;;;;;;0.30;0.30;;;23.60;63.60;;;;;;4986857;28;20033;-76
2022/07/11 11:18:27;;;;;;;0.50;0.40;;;23.80;62.60;;;;;;4990446;28;20109;-75
2022/07/11 11:21:06;;;;;;;0.47;0.38;;;23.90;58.70;;;;;;4985304;28;20068;-77
2022/07/11 11:24:02;;;;;;;0.40;0.40;;;24.00;60.30;;;;;;4990632;28;20026;-76
2022/07/11 11:26:51;;;;;;;0.47;0.47;;;24.80;65.40;;;;;;4983428;28;20038;-76
2022/07/11 11:29:22;;;;;;;0.35;0.35;;;25.50;57.20;;;;;;4983265;28;20092;-76
2022/07/11 11:31:52;;;;;;;1.13;0.50;;;25.80;61.00;;;;;;4990979;28;20037;-76
2022/07/11 11:34:18;;;;;;;1.10;0.40;;;26.20;57.70;;;;;;4990732;28;20056;-76
2022/07/11 11:36:43;;;;;;;0.30;0.30;;;26.70;56.70;;;;;;4989969;28;20049;-76
2022/07/11 11:39:09;;;;;;;0.40;0.40;;;26.80;53.00;;;;;;4988311;28;20063;-76
2022/07/11 11:41:34;;;;;;;0.35;0.35;;;26.90;53.60;;;;;;4990310;28;20015;-76
2022/07/11 11:44:01;;;;;;;0.43;0.43;;;26.80;54.40;;;;;;4989985;28;20022;-76
2022/07/11 11:46:29;;;;;;;0.47;0.47;;;26.90;53.90;;;;;;4989416;28;20040;-77
2022/07/11 11:48:56;;;;;;;0.30;0.30;;;27.30;53.10;;;;;;4991008;28;20381;-76
2022/07/11 11:51:22;;;;;;;1.27;0.50;;;26.60;53.20;;;;;;4990425;28;20104;-75
2022/07/11 11:53:51;;;;;;;0.30;0.30;;;26.10;55.10;;;;;;4989044;28;20506;-76
2022/07/11 11:56:29;;;;;;;0.50;0.47;;;26.30;52.00;;;;;;4977842;28;20493;-77
2022/07/11 11:59:12;;;;;;;2.45;0.82;;;26.20;54.00;;;;;;4990577;28;20062;-76
2022/07/11 12:01:42;;;;;;;0.40;0.40;;;27.10;53.80;;;;;;4988452;28;20027;-76
2022/07/11 12:04:12;;;;;;;0.40;0.40;;;28.20;52.60;;;;;;4988853;28;20030;-76
2022/07/11 12:06:43;;;;;;;0.50;0.50;;;29.00;49.10;;;;;;4983991;28;20050;-76
2022/07/11 12:09:18;;;;;;;0.75;0.40;;;28.10;46.70;;;;;;4989458;28;20063;-77
2022/07/11 12:11:46;;;;;;;0.50;0.40;;;26.50;50.90;;;;;;4988372;28;20088;-76
2022/07/11 12:14:13;;;;;;;0.57;0.40;;;25.20;52.80;;;;;;4985787;28;20672;-76
2022/07/11 12:16:46;;;;;;;0.40;0.40;;;25.00;56.00;;;;;;4985121;28;20066;-77
2022/07/11 12:19:22;;;;;;;0.40;0.40;;;26.00;56.10;;;;;;4986092;28;20565;-75
2022/07/11 12:21:53;;;;;;;0.40;0.40;;;26.90;50.90;;;;;;4989931;28;20050;-75
2022/07/11 12:24:23;;;;;;;0.43;0.40;;;26.90;50.10;;;;;;4989782;28;20030;-75
2022/07/11 12:26:49;;;;;;;0.50;0.50;;;27.50;50.60;;;;;;4989845;28;20122;-76
2022/07/11 12:29:22;;;;;;;3.35;1.00;;;28.50;46.20;;;;;;4986590;28;21109;-77
2022/07/11 12:32:01;;;;;;;0.30;0.30;;;29.10;46.60;;;;;;4982743;28;20026;-76
2022/07/11 12:34:32;;;;;;;0.77;0.52;;;30.20;44.80;;;;;;4986919;28;20030;-75
2022/07/11 12:37:02;;;;;;;0.35;0.35;;;29.80;45.60;;;;;;4992474;28;20471;-75
2022/07/11 12:39:33;;;;;;;1.50;0.55;;;29.70;46.00;;;;;;4988864;28;20037;-77
2022/07/11 12:42:00;;;;;;;0.22;0.22;;;29.90;44.10;;;;;;4988570;28;20089;-75
2022/07/11 12:47:17;;;;;;;0.52;0.52;;;31.10;43.50;;;;;;4985758;28;20057;-75
2022/07/11 12:49:45;;;;;;;0.32;0.32;;;30.30;42.60;;;;;;4988564;28;20560;-75
2022/07/11 12:52:12;;;;;;;1.05;0.80;;;29.10;44.50;;;;;;4987570;28;20259;-76
2022/07/11 12:54:39;;;;;;;0.20;0.20;;;27.50;45.30;;;;;;4986142;28;20645;-76
2022/07/11 12:57:06;;;;;;;0.20;0.20;;;26.50;46.40;;;;;;4984174;28;20482;-78
2022/07/11 12:59:33;;;;;;;0.65;0.60;;;26.20;46.40;;;;;;4987795;28;20117;-75
2022/07/11 13:02:03;;;;;;;1.45;0.32;;;28.90;48.80;;;;;;4987552;28;20057;-76
2022/07/11 13:04:48;;;;;;;0.22;0.22;;;32.00;40.50;;;;;;4987714;28;20026;-78